Bookmark and Share
Track history (hours):
 

Stolt Jade

Last reported at 2014-Apr-09 03:06 UTC. Time now 2014-Apr-17 18:48 UTC.
Position N 29°26' W 094°50'.
Warning: this ship's position is 8 days out of date.

Length 175 m; draft 11.6 m.

Type: Ship (hazmat cat B). MMSI: 319439000.

NotesDate/timePositionNaut miles runAvg speedWind from/ knotsBaromVisibWave heightAir tempDewpointWater temp
2014-Apr-09 03:06N 29°26' W 094°50'610.4
2014-Apr-09 02:33N 29°31' W 094°53'8 8.0
2014-Apr-09 01:33N 29°37' W 095°00'1 0.9
2014-Apr-09 00:27N 29°37' W 095°01'0 0.0
2014-Apr-08 23:33N 29°37' W 095°01'0 0.0
2014-Apr-08 22:21N 29°37' W 095°01'0 0.0
2014-Apr-08 21:33N 29°37' W 095°01'0 0.0
2014-Apr-08 20:33N 29°37' W 095°01'0 0.0
2014-Apr-08 19:33N 29°37' W 095°01'0 0.0
2014-Apr-08 18:30N 29°37' W 095°01'0 0.0
2014-Apr-08 17:33N 29°37' W 095°01'0 0.0
2014-Apr-08 16:33N 29°37' W 095°01'0 0.0
2014-Apr-08 15:33N 29°37' W 095°01'0 0.0
2014-Apr-08 14:30N 29°37' W 095°01'0 0.0
2014-Apr-08 13:27N 29°37' W 095°01'0 0.0
2014-Apr-08 12:27N 29°37' W 095°01'0 0.0
2014-Apr-08 09:18N 29°37' W 095°01'0 0.0
2014-Apr-08 00:21N 29°37' W 095°01'0 0.0
2014-Apr-07 23:27N 29°37' W 095°01'0 0.0
2014-Apr-07 22:33N 29°37' W 095°01'0 0.0
2014-Apr-07 21:21N 29°37' W 095°01'0 0.0
2014-Apr-07 20:12N 29°37' W 095°01'0 0.0
2014-Apr-07 19:33N 29°37' W 095°01'0 0.0
2014-Apr-07 17:27N 29°37' W 095°01'0 0.0
2014-Apr-07 16:27N 29°37' W 095°01'0 0.0
2014-Apr-07 15:27N 29°37' W 095°01'0 0.0
2014-Apr-07 14:27N 29°37' W 095°01'0 0.0
2014-Apr-07 13:33N 29°37' W 095°01'0 0.0
2014-Apr-07 12:33N 29°37' W 095°01'0 0.0
2014-Apr-07 11:15N 29°37' W 095°01'0 0.0
2014-Apr-07 10:09N 29°37' W 095°01'0 0.0
2014-Apr-07 01:30N 29°37' W 095°01'0 0.0
2014-Apr-07 00:33N 29°37' W 095°01'0 0.0
2014-Apr-06 23:33N 29°37' W 095°01'0 0.0
2014-Apr-06 22:33N 29°37' W 095°01'0 0.0
2014-Apr-06 21:33N 29°37' W 095°01'0 0.0
2014-Apr-06 20:33N 29°37' W 095°01'0 0.0
2014-Apr-06 19:33N 29°37' W 095°01'0 0.0
2014-Apr-06 18:33N 29°37' W 095°01'0 0.0
2014-Apr-06 17:33N 29°37' W 095°01'0 0.0
2014-Apr-06 16:30N 29°37' W 095°01'0 0.0
2014-Apr-06 15:33N 29°37' W 095°01'0 0.0
2014-Apr-06 14:33N 29°37' W 095°01'0 0.0
2014-Apr-06 13:33N 29°37' W 095°01'0 0.0
2014-Apr-06 12:30N 29°37' W 095°01'0 0.0
2014-Apr-06 11:24N 29°37' W 095°01'0 0.0
2014-Apr-06 10:27N 29°37' W 095°01'0 0.0
2014-Apr-06 09:12N 29°37' W 095°01'0 0.0
2014-Apr-06 08:30N 29°37' W 095°01'0 0.0
2014-Apr-06 07:33N 29°37' W 095°01'0 0.0
2014-Apr-06 06:33N 29°37' W 095°01'0 0.0
2014-Apr-06 05:33N 29°37' W 095°01'0 0.0
2014-Apr-06 04:33N 29°37' W 095°01'0 0.0
2014-Apr-06 03:33N 29°37' W 095°01'0 0.0
2014-Apr-06 02:33N 29°37' W 095°01'0 0.0
2014-Apr-06 01:30N 29°37' W 095°01'0 0.0
2014-Apr-06 00:33N 29°37' W 095°01'0 0.0
2014-Apr-05 23:27N 29°37' W 095°01'0 0.0
2014-Apr-05 22:30N 29°37' W 095°01'0 0.0
2014-Apr-05 21:33N 29°37' W 095°01'0 0.0
2014-Apr-05 20:33N 29°37' W 095°01'0 0.0
2014-Apr-05 19:33N 29°37' W 095°01'0 0.0
2014-Apr-05 18:33N 29°37' W 095°01'0 0.0
2014-Apr-05 17:30N 29°37' W 095°01'0 0.0
2014-Apr-05 16:33N 29°37' W 095°01'0 0.0
2014-Apr-05 15:33N 29°37' W 095°01'0 0.0
2014-Apr-05 14:33N 29°37' W 095°01'1 1.3
2014-Apr-05 13:34N 29°37' W 094°60'8 8.3
2014-Apr-05 12:33N 29°31' W 094°53'  
2014-Apr-02 05:33N 29°30' W 094°52'1111.5
2014-Apr-02 04:33N 29°40' W 094°58'8 8.2
2014-Apr-02 03:33N 29°46' W 095°05'1 1.4
2014-Apr-02 02:33N 29°45' W 095°06'0 0.0
2014-Mar-31 22:09N 29°45' W 095°06'0 0.0
2014-Mar-31 16:15N 29°45' W 095°06'0 0.0
2014-Mar-31 15:06N 29°45' W 095°06'0 0.0
2014-Mar-31 14:30N 29°45' W 095°06'0 0.0
2014-Mar-31 11:03N 29°45' W 095°06'2 3.3
2014-Mar-31 10:32N 29°45' W 095°04'9 9.0
2014-Mar-31 09:33N 29°38' W 094°58'1212.0
2014-Mar-31 08:33N 29°28' W 094°51'  

Dump ship's entire track history

sailing weather and tide predictions

Stolt Jade — ZCSQ4 — position and weather